createdAt,value
2022-08-07T00:02:37.562Z,95898.28
2022-08-07T00:05:05.969Z,95897.13
2022-08-07T00:07:40.325Z,95910.63
2022-08-07T00:10:30.747Z,95906.75
2022-08-07T00:13:09.637Z,95896.72
2022-08-07T00:15:53.383Z,95904.81
2022-08-07T00:18:26.210Z,95906.34
2022-08-07T00:21:01.385Z,95903.22
2022-08-07T00:23:36.072Z,95893.50
2022-08-07T00:26:18.566Z,95897.28
2022-08-07T00:28:59.532Z,95897.41
2022-08-07T00:31:38.053Z,95890.91
2022-08-07T00:34:11.757Z,95885.53
2022-08-07T00:36:42.750Z,95871.63
2022-08-07T00:39:16.929Z,95885.22
2022-08-07T00:42:01.828Z,95891.81
2022-08-07T00:44:34.645Z,95884.84
2022-08-07T00:47:06.376Z,95899.50
2022-08-07T00:50:19.612Z,95909.16
2022-08-07T00:52:33.571Z,95897.50
2022-08-07T00:55:10.395Z,95897.84
2022-08-07T00:57:44.457Z,95889.22
2022-08-07T01:00:26.255Z,95897.56
2022-08-07T01:02:55.997Z,95900.63
2022-08-07T01:05:28.118Z,95899.69
2022-08-07T01:07:58.747Z,95900.78
2022-08-07T01:10:27.705Z,95897.44
2022-08-07T01:12:57.386Z,95884.03
2022-08-07T01:15:35.821Z,95894.06
2022-08-07T01:18:19.492Z,95892.28
2022-08-07T01:20:59.762Z,95894.38
2022-08-07T01:23:37.903Z,95890.34
2022-08-07T01:26:12.074Z,95895.47
2022-08-07T01:28:48.444Z,95904.94
2022-08-07T01:31:42.811Z,95904.75
2022-08-07T01:34:18.798Z,95905.03
2022-08-07T01:36:52.663Z,95912.94
2022-08-07T01:39:41.222Z,95905.31
2022-08-07T01:42:38.411Z,95909.47
2022-08-07T01:45:37.402Z,95908.31
2022-08-07T01:48:20.438Z,95898.28
2022-08-07T01:51:24.236Z,95897.91
2022-08-07T01:54:12.283Z,95902.69
2022-08-07T01:57:06.878Z,95902.63
2022-08-07T01:59:54.616Z,95910.91
2022-08-07T02:02:32.766Z,95912.66
2022-08-07T02:05:48.365Z,95917.41
2022-08-07T02:08:27.326Z,95909.69
2022-08-07T02:11:00.111Z,95902.38
2022-08-07T02:13:57.945Z,95910.59
2022-08-07T02:16:33.705Z,95902.19
2022-08-07T02:20:04.322Z,95913.91
2022-08-07T02:22:03.082Z,95920.13
2022-08-07T02:24:37.138Z,95923.84
2022-08-07T02:27:09.001Z,95935.09
2022-08-07T02:29:43.628Z,95927.91
2022-08-07T02:32:23.379Z,95919.81
2022-08-07T02:34:58.882Z,95923.41
2022-08-07T02:37:36.162Z,95922.28
2022-08-07T02:40:31.198Z,95927.03
2022-08-07T02:43:07.896Z,95921.13
2022-08-07T02:45:58.361Z,95923.97
2022-08-07T02:48:32.268Z,95917.06
2022-08-07T02:51:14.309Z,95926.38
2022-08-07T02:54:01.338Z,95926.09
2022-08-07T02:56:33.991Z,95914.13
2022-08-07T02:59:07.132Z,95925.22
2022-08-07T03:01:40.320Z,95915.03
2022-08-07T03:04:15.406Z,95917.56
2022-08-07T03:06:48.643Z,95917.03
2022-08-07T03:09:42.142Z,95915.38
2022-08-07T03:12:21.973Z,95916.13
2022-08-07T03:15:02.272Z,95913.53
2022-08-07T03:17:36.359Z,95911.31
2022-08-07T03:20:23.990Z,95903.91
2022-08-07T03:22:55.813Z,95907.47
2022-08-07T03:25:40.084Z,95901.31
2022-08-07T03:28:37.342Z,95904.31
2022-08-07T03:31:24.501Z,95905.59
2022-08-07T03:34:04.139Z,95889.88
2022-08-07T03:36:36.759Z,95898.03
2022-08-07T03:39:09.740Z,95894.19
2022-08-07T03:41:42.420Z,95890.91
2022-08-07T03:44:31.751Z,95886.06
2022-08-07T03:47:14.178Z,95894.09
2022-08-07T03:49:52.286Z,95890.03
2022-08-07T03:52:27.613Z,95879.00
2022-08-07T03:55:06.495Z,95887.44
2022-08-07T03:58:33.841Z,95870.19
2022-08-07T04:00:37.071Z,95882.13
2022-08-07T04:03:06.611Z,95871.72
2022-08-07T04:05:45.604Z,95874.03
2022-08-07T04:08:22.270Z,95872.78
2022-08-07T04:12:20.843Z,95873.44
2022-08-07T04:14:10.430Z,95876.25
2022-08-07T04:16:36.908Z,95878.38
2022-08-07T04:19:14.776Z,95869.56
2022-08-07T04:22:05.478Z,95868.06
2022-08-07T04:24:43.877Z,95859.34
2022-08-07T04:27:25.532Z,95856.69
2022-08-07T04:30:02.152Z,95865.72
2022-08-07T04:32:44.966Z,95858.72
2022-08-07T04:35:18.292Z,95859.59
2022-08-07T04:38:02.912Z,95867.44
2022-08-07T04:40:52.295Z,95860.78
2022-08-07T04:44:09.982Z,95848.97
2022-08-07T04:46:34.745Z,95862.81
2022-08-07T04:49:37.529Z,95859.66
2022-08-07T04:52:27.535Z,95849.66
2022-08-07T04:55:15.009Z,95848.50
2022-08-07T04:58:27.922Z,95843.16
2022-08-07T05:01:30.855Z,95838.72
2022-08-07T05:04:23.257Z,95837.53
2022-08-07T05:07:19.731Z,95842.22
2022-08-07T05:10:05.388Z,95834.78
2022-08-07T05:14:44.874Z,95835.13
2022-08-07T05:15:54.933Z,95846.38
2022-08-07T05:18:28.090Z,95841.34
2022-08-07T05:21:02.707Z,95831.25
2022-08-07T05:23:40.075Z,95811.69
2022-08-07T05:26:23.756Z,95837.56
2022-08-07T05:29:05.103Z,95824.94
2022-08-07T05:31:40.170Z,95826.31
2022-08-07T05:34:20.624Z,95838.00
2022-08-07T05:36:57.343Z,95821.75
2022-08-07T05:40:05.491Z,95813.06
2022-08-07T05:42:33.808Z,95823.72
2022-08-07T05:45:26.259Z,95814.75
2022-08-07T05:48:05.841Z,95821.56
2022-08-07T05:50:45.039Z,95807.56
2022-08-07T05:54:13.719Z,95814.94
2022-08-07T05:56:07.149Z,95805.72
2022-08-07T05:58:52.390Z,95802.31
2022-08-07T06:01:27.345Z,95810.00
2022-08-07T06:04:09.249Z,95793.31
2022-08-07T06:06:46.372Z,95797.38
2022-08-07T06:09:18.862Z,95803.47
2022-08-07T06:11:51.468Z,95803.22
2022-08-07T06:14:28.645Z,95805.06
2022-08-07T06:17:07.378Z,95793.56
2022-08-07T06:19:57.604Z,95803.47
2022-08-07T06:22:38.942Z,95796.31
2022-08-07T06:25:23.086Z,95794.38
2022-08-07T06:28:01.743Z,95787.16
2022-08-07T06:30:41.386Z,95793.25
2022-08-07T06:33:16.625Z,95782.19
2022-08-07T06:36:11.861Z,95791.63
2022-08-07T06:38:59.339Z,95784.13
2022-08-07T06:42:03.524Z,95776.22
2022-08-07T06:44:58.263Z,95776.22
2022-08-07T06:47:27.872Z,95771.41
2022-08-07T06:50:09.148Z,95768.38
2022-08-07T06:52:46.312Z,95766.50
2022-08-07T06:56:00.489Z,95772.56
2022-08-07T06:58:27.451Z,95760.56
2022-08-07T07:01:11.155Z,95762.88
2022-08-07T07:03:48.872Z,95772.88
2022-08-07T07:06:26.496Z,95767.00
2022-08-07T07:08:56.850Z,95760.84
2022-08-07T07:12:08.605Z,95760.59
2022-08-07T07:14:18.874Z,95743.00
2022-08-07T07:16:54.106Z,95757.00
2022-08-07T07:19:56.870Z,95757.09
2022-08-07T07:22:35.971Z,95752.69
2022-08-07T07:26:32.400Z,95753.59
2022-08-07T07:29:22.765Z,95757.41
2022-08-07T07:31:30.525Z,95750.59
2022-08-07T07:34:15.642Z,95754.69
2022-08-07T07:36:47.946Z,95758.66
2022-08-07T07:39:23.586Z,95748.91
2022-08-07T07:42:12.935Z,95738.81
2022-08-07T07:44:49.527Z,95747.94
2022-08-07T07:47:23.676Z,95758.81
2022-08-07T07:50:34.370Z,95730.06
2022-08-07T07:52:46.913Z,95748.38
2022-08-07T07:55:20.050Z,95749.22
2022-08-07T07:57:58.238Z,95751.50
2022-08-07T08:00:31.392Z,95754.63
2022-08-07T08:04:06.151Z,95744.56
2022-08-07T08:06:08.395Z,95749.09
2022-08-07T08:08:43.923Z,95735.50
2022-08-07T08:11:17.902Z,95764.38
2022-08-07T08:14:03.650Z,95757.63
2022-08-07T08:16:50.259Z,95762.00
2022-08-07T08:20:16.942Z,95763.97
2022-08-07T08:22:34.416Z,95759.22
2022-08-07T08:25:26.911Z,95765.38
2022-08-07T08:28:16.928Z,95768.44
2022-08-07T08:30:59.393Z,95753.91
2022-08-07T08:33:34.813Z,95752.06
2022-08-07T08:36:06.100Z,95743.22
2022-08-07T08:38:41.356Z,95739.06
2022-08-07T08:41:57.932Z,95737.69
2022-08-07T08:44:40.899Z,95731.28
2022-08-07T08:47:26.190Z,95729.63
2022-08-07T08:50:56.644Z,95728.06
2022-08-07T08:53:34.105Z,95722.72
2022-08-07T08:56:24.510Z,95718.16
2022-08-07T08:59:02.359Z,95714.94
2022-08-07T09:02:01.146Z,95725.34
2022-08-07T09:04:58.347Z,95718.09
2022-08-07T09:07:46.380Z,95722.53
2022-08-07T09:10:35.001Z,95712.72
2022-08-07T09:13:37.088Z,95725.53
2022-08-07T09:16:24.188Z,95723.72
2022-08-07T09:19:51.609Z,95718.97
2022-08-07T09:24:33.578Z,95719.56
2022-08-07T09:25:38.430Z,95731.47
2022-08-07T09:30:05.419Z,95721.34
2022-08-07T09:31:08.492Z,95732.34
2022-08-07T09:33:57.334Z,95721.81
2022-08-07T09:36:42.944Z,95727.13
2022-08-07T09:39:52.859Z,95725.84
2022-08-07T09:42:35.394Z,95725.06
2022-08-07T09:47:27.388Z,95725.03
2022-08-07T09:48:30.175Z,95734.59
2022-08-07T09:52:16.254Z,95732.56
2022-08-07T09:54:47.776Z,95727.94
2022-08-07T09:57:22.545Z,95727.09
2022-08-07T10:00:15.419Z,95726.91
2022-08-07T10:04:05.432Z,95728.91
2022-08-07T10:06:17.926Z,95726.25
2022-08-07T10:09:06.109Z,95721.34
2022-08-07T10:12:01.459Z,95720.16
2022-08-07T10:15:19.865Z,95718.31
2022-08-07T10:18:27.130Z,95712.28
2022-08-07T10:22:12.331Z,95719.78
2022-08-07T10:24:39.582Z,95705.41
2022-08-07T10:27:45.961Z,95720.69
2022-08-07T10:30:44.911Z,95720.94
2022-08-07T10:34:06.524Z,95724.31
2022-08-07T10:36:31.159Z,95722.34
2022-08-07T10:39:42.114Z,95717.22
2022-08-07T10:42:31.108Z,95720.13
2022-08-07T10:45:08.308Z,95720.28
2022-08-07T10:47:53.296Z,95715.31
2022-08-07T10:50:34.902Z,95719.91
2022-08-07T10:53:45.051Z,95719.44
2022-08-07T10:56:37.726Z,95705.88
2022-08-07T10:59:47.500Z,95722.84
2022-08-07T11:02:38.475Z,95722.31
2022-08-07T11:05:50.624Z,95725.03
2022-08-07T11:08:39.016Z,95726.03
2022-08-07T11:11:28.224Z,95731.38
2022-08-07T11:14:43.825Z,95733.13
2022-08-07T11:17:09.200Z,95737.16
2022-08-07T11:19:53.626Z,95727.22
2022-08-07T11:22:45.873Z,95741.41
2022-08-07T11:25:19.685Z,95735.59
2022-08-07T11:28:15.462Z,95742.34
2022-08-07T11:31:03.661Z,95744.19
2022-08-07T11:34:00.332Z,95742.28
2022-08-07T11:36:52.437Z,95744.38
2022-08-07T11:40:01.032Z,95745.00
2022-08-07T11:43:06.607Z,95747.94
2022-08-07T11:46:04.949Z,95750.84
2022-08-07T11:49:51.494Z,95747.97
2022-08-07T11:52:06.017Z,95763.41
2022-08-07T11:54:55.041Z,95762.59
2022-08-07T11:58:00.748Z,95758.50
2022-08-07T12:01:04.386Z,95757.97
2022-08-07T12:03:57.816Z,95761.72
2022-08-07T12:06:37.056Z,95769.63
2022-08-07T12:09:23.385Z,95761.78
2022-08-07T12:12:10.698Z,95771.25
2022-08-07T12:15:02.877Z,95764.81
2022-08-07T12:17:59.259Z,95768.16
2022-08-07T12:20:43.834Z,95772.97
2022-08-07T12:24:05.710Z,95770.06
2022-08-07T12:26:46.584Z,95777.75
2022-08-07T12:29:38.491Z,95776.78
2022-08-07T12:32:34.969Z,95791.00
2022-08-07T12:35:07.377Z,95779.41
2022-08-07T12:38:09.334Z,95778.03
2022-08-07T12:40:50.304Z,95773.13
2022-08-07T12:44:03.482Z,95768.63
2022-08-07T12:46:50.822Z,95771.13
2022-08-07T12:49:48.518Z,95770.13
2022-08-07T12:52:17.979Z,95771.44
2022-08-07T12:55:09.448Z,95776.59
2022-08-07T12:58:00.260Z,95764.75
2022-08-07T13:00:56.785Z,95780.06
2022-08-07T13:03:54.826Z,95775.53
2022-08-07T13:07:08.385Z,95780.78
2022-08-07T13:10:28.812Z,95775.47
2022-08-07T13:13:57.276Z,95781.50
2022-08-07T13:16:43.209Z,95781.22
2022-08-07T13:19:35.187Z,95784.06
2022-08-07T13:22:33.153Z,95784.94
2022-08-07T13:25:15.263Z,95780.38
2022-08-07T13:28:13.765Z,95778.94
2022-08-07T13:31:01.694Z,95772.78
2022-08-07T13:34:30.524Z,95777.47
2022-08-07T13:36:55.223Z,95777.91
2022-08-07T13:40:34.232Z,95780.63
2022-08-07T13:42:26.318Z,95774.50
2022-08-07T13:46:06.783Z,95775.38
2022-08-07T13:48:05.964Z,95783.16
2022-08-07T13:51:00.009Z,95782.81
2022-08-07T13:53:45.726Z,95777.00
2022-08-07T13:56:36.239Z,95777.81
2022-08-07T13:59:34.370Z,95769.34
2022-08-07T14:02:15.698Z,95781.00
2022-08-07T14:04:54.431Z,95776.03
2022-08-07T14:07:28.329Z,95773.69
2022-08-07T14:10:17.658Z,95773.72
2022-08-07T14:13:08.174Z,95785.75
2022-08-07T14:15:41.152Z,95778.78
2022-08-07T14:18:27.924Z,95783.84
2022-08-07T14:22:01.395Z,95778.03
2022-08-07T14:24:14.425Z,95775.72
2022-08-07T14:26:51.709Z,95784.66
2022-08-07T14:30:05.623Z,95779.25
2022-08-07T14:32:13.218Z,95778.13
2022-08-07T14:34:46.736Z,95790.19
2022-08-07T14:37:18.981Z,95785.56
2022-08-07T14:40:18.148Z,95798.00
2022-08-07T14:42:59.922Z,95780.22
2022-08-07T14:45:48.772Z,95793.38
2022-08-07T14:48:27.246Z,95790.34
2022-08-07T14:51:00.695Z,95804.31
2022-08-07T14:54:03.783Z,95803.50
2022-08-07T14:56:29.832Z,95802.03
2022-08-07T14:59:13.812Z,95812.47
2022-08-07T15:02:09.062Z,95816.81
2022-08-07T15:05:01.777Z,95815.22
2022-08-07T15:10:29.886Z,95824.97
2022-08-07T15:13:06.672Z,95825.38
2022-08-07T15:18:41.818Z,95837.81
2022-08-07T15:21:58.884Z,95819.63
2022-08-07T15:25:14.522Z,95817.31
2022-08-07T15:27:27.136Z,95825.88
2022-08-07T15:30:16.697Z,95822.81
2022-08-07T15:33:03.675Z,95826.28
2022-08-07T15:36:00.377Z,95826.69
2022-08-07T15:38:51.180Z,95823.59
2022-08-07T15:42:46.221Z,95822.88
2022-08-07T15:44:19.514Z,95813.19
2022-08-07T15:50:04.159Z,95792.75
2022-08-07T15:52:36.581Z,95806.25
2022-08-07T15:55:11.653Z,95817.84
2022-08-07T15:57:48.406Z,95826.38
2022-08-07T16:00:33.421Z,95821.38
2022-08-07T16:03:08.546Z,95814.41
2022-08-07T16:05:53.009Z,95819.41
2022-08-07T16:08:32.875Z,95818.69
2022-08-07T16:11:17.436Z,95818.72
2022-08-07T16:14:22.724Z,95819.13
2022-08-07T16:17:03.399Z,95822.59
2022-08-07T16:20:07.148Z,95814.91
2022-08-07T16:22:55.117Z,95817.63
2022-08-07T16:25:52.632Z,95819.97
2022-08-07T16:29:18.660Z,95825.06
2022-08-07T16:31:57.893Z,95800.69
2022-08-07T16:34:39.306Z,95824.28
2022-08-07T16:38:06.231Z,95823.53
2022-08-07T16:40:57.243Z,95821.22
2022-08-07T16:44:06.099Z,95812.72
2022-08-07T16:47:08.731Z,95820.84
2022-08-07T16:50:26.604Z,95813.88
2022-08-07T16:54:02.413Z,95814.63
2022-08-07T16:56:26.834Z,95812.28
2022-08-07T16:59:14.311Z,95810.31
2022-08-07T17:01:59.812Z,95806.03
2022-08-07T17:04:58.855Z,95805.63
2022-08-07T17:07:55.994Z,95806.78
2022-08-07T17:10:42.524Z,95789.34
2022-08-07T17:13:41.356Z,95797.50
2022-08-07T17:16:29.926Z,95785.56
2022-08-07T17:18:58.741Z,95800.28
2022-08-07T17:21:51.192Z,95795.66
2022-08-07T17:24:38.946Z,95796.44
2022-08-07T17:27:32.636Z,95786.41
2022-08-07T17:30:13.970Z,95785.63
2022-08-07T17:32:49.611Z,95785.97
2022-08-07T17:35:55.024Z,95784.06
2022-08-07T17:38:47.468Z,95783.28
2022-08-07T17:42:03.807Z,95782.53
2022-08-07T17:44:45.461Z,95782.56
2022-08-07T17:47:38.434Z,95788.78
2022-08-07T17:50:19.805Z,95788.81
2022-08-07T17:53:54.161Z,95786.13
2022-08-07T17:56:15.452Z,95783.44
2022-08-07T17:58:57.722Z,95792.72
2022-08-07T18:01:46.422Z,95790.81
2022-08-07T18:04:35.794Z,95804.34
2022-08-07T18:07:22.606Z,95801.66
2022-08-07T18:10:07.576Z,95794.72
2022-08-07T18:13:10.151Z,95799.38
2022-08-07T18:15:42.406Z,95803.63
2022-08-07T18:18:46.012Z,95797.06
2022-08-07T18:21:51.704Z,95786.63
2022-08-07T18:24:33.508Z,95794.34
2022-08-07T18:27:20.790Z,95793.97
2022-08-07T18:30:07.039Z,95799.00
2022-08-07T18:33:15.184Z,95779.69
2022-08-07T18:36:17.909Z,95788.56
2022-08-07T18:40:06.834Z,95785.09
2022-08-07T18:42:19.346Z,95785.47
2022-08-07T18:47:49.088Z,95790.50
2022-08-07T18:51:08.571Z,95790.50
2022-08-07T18:54:30.447Z,95787.03
2022-08-07T18:57:30.892Z,95785.44
2022-08-07T19:00:34.466Z,95794.00
2022-08-07T19:03:47.701Z,95788.19
2022-08-07T19:06:33.522Z,95792.81
2022-08-07T19:09:54.773Z,95786.63
2022-08-07T19:12:16.207Z,95788.97
2022-08-07T19:15:00.565Z,95795.91
2022-08-07T19:18:02.751Z,95783.13
2022-08-07T19:21:08.550Z,95781.19
2022-08-07T19:23:58.748Z,95781.59
2022-08-07T19:27:01.880Z,95770.00
2022-08-07T19:31:05.417Z,95772.31
2022-08-07T19:32:28.807Z,95775.41
2022-08-07T19:35:03.799Z,95770.75
2022-08-07T19:37:56.546Z,95777.72
2022-08-07T19:40:31.504Z,95774.22
2022-08-07T19:43:49.977Z,95778.09
2022-08-07T19:46:12.742Z,95774.59
2022-08-07T19:48:53.845Z,95771.91
2022-08-07T19:51:53.319Z,95770.75
2022-08-07T19:54:34.444Z,95769.19
2022-08-07T19:58:02.454Z,95766.09
2022-08-07T20:00:08.777Z,95768.81
2022-08-07T20:02:52.096Z,95768.81
2022-08-07T20:05:29.351Z,95769.97
2022-08-07T20:08:02.851Z,95762.22
2022-08-07T20:10:55.048Z,95767.66
2022-08-07T20:13:33.599Z,95769.97
2022-08-07T20:16:05.097Z,95777.69
2022-08-07T20:18:35.052Z,95773.84
2022-08-07T20:21:20.874Z,95776.53
2022-08-07T20:23:57.964Z,95773.44
2022-08-07T20:26:45.174Z,95774.97
2022-08-07T20:29:49.324Z,95772.66
2022-08-07T20:32:22.905Z,95778.44
2022-08-07T20:35:01.252Z,95786.53
2022-08-07T20:37:55.641Z,95792.34
2022-08-07T20:40:40.556Z,95785.00
2022-08-07T20:43:14.898Z,95789.63
2022-08-07T20:46:26.519Z,95787.31
2022-08-07T20:49:53.995Z,95794.66
2022-08-07T20:51:35.977Z,95785.75
2022-08-07T20:54:12.152Z,95796.59
2022-08-07T20:56:50.505Z,95781.13
2022-08-07T21:00:05.226Z,95796.56
2022-08-07T21:02:54.422Z,95797.38
2022-08-07T21:05:52.897Z,95791.16
2022-08-07T21:08:47.014Z,95796.19
2022-08-07T21:11:22.201Z,95784.25
2022-08-07T21:14:34.040Z,95791.94
2022-08-07T21:18:02.710Z,95790.41
2022-08-07T21:20:04.460Z,95790.78
2022-08-07T21:22:45.077Z,95789.63
2022-08-07T21:25:44.810Z,95792.34
2022-08-07T21:28:49.921Z,95792.34
2022-08-07T21:31:50.115Z,95788.09
2022-08-07T21:34:26.702Z,95794.69
2022-08-07T21:37:09.402Z,95794.31
2022-08-07T21:40:08.215Z,95796.25
2022-08-07T21:42:48.978Z,95809.38
2022-08-07T21:45:30.779Z,95808.59
2022-08-07T21:48:29.277Z,95810.16
2022-08-07T21:51:32.302Z,95811.69
2022-08-07T21:54:11.479Z,95822.91
2022-08-07T21:56:48.108Z,95819.84
2022-08-07T22:00:05.341Z,95815.94
2022-08-07T22:02:55.026Z,95811.72
2022-08-07T22:05:45.840Z,95809.00
2022-08-07T22:08:19.914Z,95816.75
2022-08-07T22:10:54.064Z,95821.34
2022-08-07T22:13:51.208Z,95817.88
2022-08-07T22:16:44.785Z,95825.25
2022-08-07T22:19:36.995Z,95821.75
2022-08-07T22:22:20.759Z,95825.22
2022-08-07T22:25:12.167Z,95836.06
2022-08-07T22:28:03.128Z,95832.22
2022-08-07T22:30:58.555Z,95832.94
2022-08-07T22:33:55.979Z,95837.22
2022-08-07T22:36:35.386Z,95838.75
2022-08-07T22:39:28.148Z,95840.31
2022-08-07T22:42:19.583Z,95833.75
2022-08-07T22:44:59.008Z,95841.50
2022-08-07T22:48:13.960Z,95839.56
2022-08-07T22:51:05.474Z,95835.72
2022-08-07T22:54:09.199Z,95833.78
2022-08-07T22:57:01.663Z,95840.38
2022-08-07T23:00:12.789Z,95842.31
2022-08-07T23:02:57.317Z,95844.63
2022-08-07T23:06:06.948Z,95856.63
2022-08-07T23:08:32.506Z,95855.06
2022-08-07T23:11:24.448Z,95856.22
2022-08-07T23:14:22.754Z,95858.50
2022-08-07T23:17:21.025Z,95861.19
2022-08-07T23:20:51.451Z,95862.34
2022-08-07T23:24:06.746Z,95862.66
2022-08-07T23:26:37.021Z,95858.75
2022-08-07T23:29:43.218Z,95857.97
2022-08-07T23:34:19.830Z,95858.72
2022-08-07T23:35:47.971Z,95865.59
2022-08-07T23:38:36.669Z,95859.75
2022-08-07T23:42:04.657Z,95866.28
2022-08-07T23:45:00.435Z,95868.19
2022-08-07T23:47:53.264Z,95872.81
2022-08-07T23:50:40.715Z,95869.25
2022-08-07T23:53:17.094Z,95870.72
2022-08-07T23:56:12.078Z,95860.50
2022-08-07T23:59:10.184Z,95861.56
